KFRG/FRG METAR and TAF weather

Enter ICAO airport designator
Station Type Date Time Source
KFRG METAR 2020/03/29 15:06 UTC NOAA

KFRG 291506Z AUTO 05007KT 1 3/4SM BR OVC004 10/08 A3001 RMK AO2 LTG DSNT NW T01000083


Station Type Date Time Source
KFRG Decoded METAR 2020/03/29 15:06 UTC NOAA

FARMINGDALE REPUBLIC AIRPORT , NY, United States (KFRG) 40-44N 073-25W 21M
Mar 29, 2020 - 11:06 AM EDT / 2020.03.29 1506 UTC
Wind: from the NE (050 degrees) at 8 MPH (7 KT):0
Visibility: 1 3/4 mile(s):0
Sky conditions: overcast
Weather: mist; Lightning observed
Temperature: 50.0 F (10.0 C)
Dew Point: 46.9 F (8.3 C)
Relative Humidity: 89%
Pressure (altimeter): 30.01 in. Hg (1016 hPa)
ob: KFRG 291506Z AUTO 05007KT 1 3/4SM BR OVC004 10/08 A3001 RMK AO2 LTG DSNT NW T01000083
cycle: 15

Station Type Date Time Source
KFRG TAF UTC NOAA

Error!

Example: see airport list